createdAt,value
2022-10-19T00:01:05.881Z,11.95
2022-10-19T00:03:34.876Z,12.57
2022-10-19T00:06:12.328Z,12.55
2022-10-19T00:08:40.425Z,12.98
2022-10-19T00:11:08.880Z,11.98
2022-10-19T00:13:38.665Z,12.57
2022-10-19T00:16:11.519Z,12.60
2022-10-19T00:18:40.731Z,11.82
2022-10-19T00:21:10.927Z,13.70
2022-10-19T00:23:39.263Z,12.40
2022-10-19T00:26:07.671Z,12.77
2022-10-19T00:28:35.816Z,12.43
2022-10-19T00:31:06.650Z,12.75
2022-10-19T00:33:35.238Z,12.63
2022-10-19T00:36:03.338Z,12.63
2022-10-19T00:38:31.306Z,13.18
2022-10-19T00:40:59.792Z,13.18
2022-10-19T00:43:31.897Z,12.02
2022-10-19T00:45:59.884Z,10.55
2022-10-19T00:48:32.932Z,12.45
2022-10-19T00:51:01.372Z,13.02
2022-10-19T00:53:31.695Z,11.23
2022-10-19T00:56:03.818Z,11.68
2022-10-19T00:58:32.480Z,11.98
2022-10-19T01:01:03.283Z,12.50
2022-10-19T01:03:33.183Z,12.15
2022-10-19T01:06:04.118Z,12.45
2022-10-19T01:08:32.687Z,11.77
2022-10-19T01:11:14.490Z,10.60
2022-10-19T01:13:51.485Z,11.10
2022-10-19T01:16:29.835Z,10.55
2022-10-19T01:19:06.522Z,11.18
2022-10-19T01:21:40.284Z,10.98
2022-10-19T01:24:38.361Z,12.52
2022-10-19T01:27:37.529Z,11.02
2022-10-19T01:30:15.269Z,10.23
2022-10-19T01:32:53.893Z,9.57
2022-10-19T01:35:29.049Z,10.73
2022-10-19T01:38:06.457Z,11.00
2022-10-19T01:40:43.958Z,10.20
2022-10-19T01:43:19.627Z,9.82
2022-10-19T01:45:53.656Z,11.13
2022-10-19T01:48:26.247Z,10.32
2022-10-19T01:51:01.419Z,11.43
2022-10-19T01:53:33.067Z,11.15
2022-10-19T01:56:03.871Z,11.55
2022-10-19T01:58:36.499Z,10.68
2022-10-19T02:03:44.241Z,11.27
2022-10-19T02:06:14.604Z,11.60
2022-10-19T02:08:47.036Z,11.27
2022-10-19T02:11:15.939Z,9.98
2022-10-19T02:13:46.176Z,10.48
2022-10-19T02:16:20.361Z,11.07
2022-10-19T02:18:51.641Z,10.10
2022-10-19T02:21:20.181Z,11.25
2022-10-19T02:23:50.517Z,10.03
2022-10-19T02:26:22.673Z,9.77
2022-10-19T02:28:51.355Z,9.60
2022-10-19T02:31:20.796Z,9.70
2022-10-19T02:33:48.945Z,8.07
2022-10-19T02:36:17.046Z,9.85
2022-10-19T02:38:45.361Z,8.93
2022-10-19T02:41:17.854Z,8.35
2022-10-19T02:43:51.167Z,8.20
2022-10-19T02:46:25.145Z,8.60
2022-10-19T02:48:54.161Z,7.95
2022-10-19T02:51:32.839Z,7.40
2022-10-19T02:54:04.158Z,5.50
2022-10-19T02:56:33.938Z,8.15
2022-10-19T02:59:01.972Z,8.20
2022-10-19T03:01:31.585Z,8.98
2022-10-19T03:06:27.561Z,8.38
2022-10-19T03:08:55.576Z,8.05
2022-10-19T03:11:23.561Z,8.18
2022-10-19T03:13:51.596Z,8.23
2022-10-19T03:16:19.727Z,7.93
2022-10-19T03:18:50.758Z,8.05
2022-10-19T03:21:20.103Z,8.75
2022-10-19T03:23:48.139Z,9.52
2022-10-19T03:26:17.758Z,8.68
2022-10-19T03:28:45.971Z,8.20
2022-10-19T03:31:14.020Z,9.30
2022-10-19T03:33:42.053Z,9.57
2022-10-19T03:36:21.443Z,9.55
2022-10-19T03:38:51.455Z,9.25
2022-10-19T03:41:19.996Z,8.82
2022-10-19T03:43:48.453Z,9.38
2022-10-19T03:46:16.892Z,8.70
2022-10-19T03:48:45.016Z,9.20
2022-10-19T03:51:14.726Z,10.07
2022-10-19T03:53:45.057Z,8.93
2022-10-19T03:56:15.527Z,9.35
2022-10-19T03:58:45.203Z,8.57
2022-10-19T04:01:15.647Z,8.80
2022-10-19T04:03:44.386Z,9.00
2022-10-19T04:06:18.281Z,8.60
2022-10-19T04:08:51.077Z,9.25
2022-10-19T04:11:21.733Z,9.18
2022-10-19T04:13:50.429Z,9.80
2022-10-19T04:16:19.023Z,8.95
2022-10-19T04:18:47.091Z,10.07
2022-10-19T04:21:23.010Z,9.32
2022-10-19T04:23:53.791Z,9.45
2022-10-19T04:26:22.309Z,9.65
2022-10-19T04:28:50.756Z,10.88
2022-10-19T04:31:18.865Z,11.18
2022-10-19T04:36:19.858Z,11.07
2022-10-19T04:38:47.977Z,12.25
2022-10-19T04:41:19.746Z,13.15
2022-10-19T04:43:48.285Z,12.18
2022-10-19T04:46:17.605Z,13.52
2022-10-19T04:48:47.487Z,13.73
2022-10-19T04:51:15.942Z,14.05
2022-10-19T04:53:44.514Z,17.13
2022-10-19T04:56:15.536Z,16.87
2022-10-19T04:58:45.204Z,14.60
2022-10-19T05:01:17.400Z,14.68
2022-10-19T05:03:45.767Z,14.77
2022-10-19T05:06:14.728Z,14.25
2022-10-19T05:08:43.006Z,15.35
2022-10-19T05:11:14.147Z,14.15
2022-10-19T05:13:44.506Z,14.30
2022-10-19T05:16:14.453Z,18.17
2022-10-19T05:18:42.639Z,17.00
2022-10-19T05:21:12.489Z,19.75
2022-10-19T05:23:41.737Z,16.70
2022-10-19T05:26:11.936Z,14.50
2022-10-19T05:28:40.497Z,14.10
2022-10-19T05:31:12.705Z,14.60
2022-10-19T05:33:41.331Z,12.77
2022-10-19T05:36:18.312Z,13.93
2022-10-19T05:38:48.083Z,14.13
2022-10-19T05:41:16.842Z,14.35
2022-10-19T05:43:45.836Z,13.77
2022-10-19T05:46:18.468Z,15.07
2022-10-19T05:48:47.430Z,13.95
2022-10-19T05:51:19.349Z,17.00
2022-10-19T05:53:47.836Z,17.10
2022-10-19T05:56:17.946Z,20.35
2022-10-19T05:58:46.334Z,17.83
2022-10-19T06:01:16.466Z,17.92
2022-10-19T06:03:44.889Z,18.83
2022-10-19T06:06:13.160Z,19.33
2022-10-19T06:08:41.304Z,17.98
2022-10-19T06:11:11.319Z,17.95
2022-10-19T06:13:39.777Z,19.08
2022-10-19T06:16:09.286Z,19.58
2022-10-19T06:21:08.860Z,18.73
2022-10-19T06:23:37.322Z,17.77
2022-10-19T06:26:07.610Z,17.70
2022-10-19T06:28:36.288Z,17.70
2022-10-19T06:31:07.157Z,19.60
2022-10-19T06:33:40.922Z,20.80
2022-10-19T06:36:10.361Z,19.58
2022-10-19T06:38:38.925Z,20.83
2022-10-19T06:41:07.406Z,20.75
2022-10-19T06:43:35.857Z,19.88
2022-10-19T06:46:05.725Z,20.15
2022-10-19T06:48:33.872Z,20.25
2022-10-19T06:51:06.666Z,21.90
2022-10-19T06:53:34.728Z,25.92
2022-10-19T06:56:04.837Z,22.35
2022-10-19T06:58:36.157Z,19.90
2022-10-19T07:01:07.462Z,19.98
2022-10-19T07:03:36.820Z,20.13
2022-10-19T07:06:08.192Z,18.48
2022-10-19T07:08:38.078Z,19.33
2022-10-19T07:11:07.605Z,19.73
2022-10-19T07:16:06.736Z,16.92
2022-10-19T07:18:35.596Z,18.65
2022-10-19T07:21:07.767Z,16.67
2022-10-19T07:23:37.362Z,18.08
2022-10-19T07:26:07.200Z,19.10
2022-10-19T07:28:35.446Z,19.38
2022-10-19T07:31:07.883Z,16.95
2022-10-19T07:33:36.016Z,19.33
2022-10-19T07:36:07.736Z,19.67
2022-10-19T07:38:37.082Z,20.67
2022-10-19T07:41:07.086Z,17.75
2022-10-19T07:43:35.779Z,15.38
2022-10-19T07:46:06.757Z,13.70
2022-10-19T07:48:35.115Z,13.50
2022-10-19T07:51:04.816Z,13.70
2022-10-19T07:53:35.053Z,12.75
2022-10-19T07:56:06.805Z,11.77
2022-10-19T07:58:35.343Z,11.60
2022-10-19T08:01:04.331Z,11.90
2022-10-19T08:04:14.217Z,12.45
2022-10-19T08:06:21.513Z,10.80
2022-10-19T08:08:51.359Z,9.60
2022-10-19T08:11:21.603Z,10.38
2022-10-19T08:13:49.870Z,9.27
2022-10-19T08:16:28.436Z,9.13
2022-10-19T08:18:59.812Z,8.83
2022-10-19T08:21:28.706Z,10.05
2022-10-19T08:23:58.508Z,10.30
2022-10-19T08:26:28.917Z,9.68
2022-10-19T08:29:00.684Z,8.90
2022-10-19T08:31:29.112Z,8.65
2022-10-19T08:33:57.568Z,7.20
2022-10-19T08:36:26.018Z,7.82
2022-10-19T08:38:54.093Z,7.10
2022-10-19T08:41:33.729Z,7.88
2022-10-19T08:44:24.985Z,9.68
2022-10-19T08:47:02.589Z,12.15
2022-10-19T08:49:32.796Z,11.35
2022-10-19T08:52:05.091Z,12.77
2022-10-19T08:54:41.042Z,13.35
2022-10-19T08:57:21.872Z,14.02
2022-10-19T08:59:55.778Z,12.77
2022-10-19T09:02:50.296Z,13.35
2022-10-19T09:05:30.041Z,12.43
2022-10-19T09:07:58.238Z,11.48
2022-10-19T09:10:30.253Z,11.65
2022-10-19T09:13:02.614Z,11.55
2022-10-19T09:15:37.526Z,13.20
2022-10-19T09:18:10.725Z,12.23
2022-10-19T09:20:42.289Z,12.80
2022-10-19T09:23:21.157Z,12.15
2022-10-19T09:25:51.123Z,13.32
2022-10-19T09:28:42.221Z,12.25
2022-10-19T09:31:17.021Z,13.15
2022-10-19T09:33:52.027Z,13.68
2022-10-19T09:36:22.727Z,16.13
2022-10-19T09:38:55.782Z,14.77
2022-10-19T09:41:25.313Z,14.82
2022-10-19T09:46:37.029Z,15.13
2022-10-19T09:49:07.160Z,15.43
2022-10-19T09:51:52.415Z,15.98
2022-10-19T09:54:36.995Z,16.50
2022-10-19T09:57:06.329Z,17.33
2022-10-19T09:59:37.960Z,15.02
2022-10-19T10:02:18.143Z,17.17
2022-10-19T10:04:57.475Z,15.85
2022-10-19T10:09:56.341Z,12.70
2022-10-19T10:12:24.913Z,13.77
2022-10-19T10:14:56.216Z,11.30
2022-10-19T10:17:30.335Z,12.35
2022-10-19T10:20:27.728Z,11.80
2022-10-19T10:22:59.316Z,12.20
2022-10-19T10:25:30.031Z,12.85
2022-10-19T10:28:01.341Z,12.18
2022-10-19T10:30:35.657Z,12.48
2022-10-19T10:33:13.497Z,11.05
2022-10-19T10:35:57.637Z,10.85
2022-10-19T10:38:28.440Z,11.85
2022-10-19T10:41:00.868Z,10.68
2022-10-19T10:43:32.188Z,9.93
2022-10-19T10:46:06.781Z,9.45
2022-10-19T10:48:39.613Z,10.27
2022-10-19T10:51:21.653Z,10.32
2022-10-19T10:53:50.276Z,9.73
2022-10-19T10:56:25.569Z,9.60
2022-10-19T10:58:59.052Z,8.82
2022-10-19T11:01:34.336Z,8.70
2022-10-19T11:04:05.690Z,7.63
2022-10-19T11:06:39.604Z,9.43
2022-10-19T11:09:17.640Z,7.57
2022-10-19T11:11:48.099Z,7.75
2022-10-19T11:14:36.884Z,7.85
2022-10-19T11:17:14.469Z,7.93
2022-10-19T11:19:44.430Z,8.07
2022-10-19T11:22:24.881Z,8.13
2022-10-19T11:25:16.473Z,7.10
2022-10-19T11:27:53.892Z,7.78
2022-10-19T11:30:23.357Z,7.25
2022-10-19T11:33:02.568Z,6.75
2022-10-19T11:35:52.771Z,5.75
2022-10-19T11:38:33.443Z,6.68
2022-10-19T11:41:17.890Z,6.45
2022-10-19T11:43:57.702Z,5.68
2022-10-19T11:46:31.590Z,5.90
2022-10-19T11:49:20.520Z,7.28
2022-10-19T11:51:57.968Z,9.73
2022-10-19T11:54:39.944Z,9.82
2022-10-19T11:57:14.301Z,9.95
2022-10-19T12:00:00.252Z,10.73
2022-10-19T12:03:07.828Z,10.10
2022-10-19T12:08:29.399Z,10.63
2022-10-19T12:11:04.977Z,10.05
2022-10-19T12:13:40.562Z,9.38
2022-10-19T12:16:11.125Z,9.00
2022-10-19T12:18:42.849Z,8.43
2022-10-19T12:21:18.902Z,7.70
2022-10-19T12:23:48.032Z,7.28
2022-10-19T12:28:51.609Z,8.43
2022-10-19T12:31:20.221Z,8.27
2022-10-19T12:33:57.535Z,8.38
2022-10-19T12:36:38.097Z,9.07
2022-10-19T12:39:13.469Z,8.50
2022-10-19T12:41:46.855Z,8.05
2022-10-19T12:44:38.849Z,8.32
2022-10-19T12:47:12.865Z,6.85
2022-10-19T12:49:49.148Z,7.45
2022-10-19T12:52:41.845Z,8.25
2022-10-19T12:55:29.636Z,6.97
2022-10-19T12:58:01.505Z,7.72
2022-10-19T13:00:32.265Z,6.90
2022-10-19T13:03:04.534Z,7.43
2022-10-19T13:05:34.557Z,6.72
2022-10-19T13:08:07.983Z,6.88
2022-10-19T13:10:39.140Z,6.90
2022-10-19T13:13:27.382Z,6.93
2022-10-19T13:15:55.408Z,6.33
2022-10-19T13:19:07.231Z,7.35
2022-10-19T13:21:45.667Z,6.90
2022-10-19T13:24:28.942Z,7.60
2022-10-19T13:27:26.460Z,7.15
2022-10-19T13:29:54.666Z,6.05
2022-10-19T13:32:38.217Z,6.40
2022-10-19T13:35:33.171Z,6.70
2022-10-19T13:38:28.811Z,6.47
2022-10-19T13:41:18.175Z,5.57
2022-10-19T13:44:04.810Z,5.90
2022-10-19T13:46:55.391Z,5.80
2022-10-19T13:49:37.463Z,5.95
2022-10-19T13:52:24.272Z,6.95
2022-10-19T13:55:32.962Z,6.53
2022-10-19T13:58:31.095Z,6.63
2022-10-19T14:01:13.140Z,7.23
2022-10-19T14:04:05.044Z,6.72
2022-10-19T14:06:37.644Z,7.72
2022-10-19T14:09:45.585Z,6.57
2022-10-19T14:12:19.929Z,7.53
2022-10-19T14:14:50.199Z,6.80
2022-10-19T14:17:20.606Z,7.68
2022-10-19T14:19:50.477Z,7.32
2022-10-19T14:22:21.178Z,7.15
2022-10-19T14:24:49.164Z,7.18
2022-10-19T14:27:22.252Z,7.65
2022-10-19T14:29:53.848Z,7.63
2022-10-19T14:32:25.826Z,7.07
2022-10-19T14:34:55.599Z,7.78
2022-10-19T14:37:26.722Z,8.40
2022-10-19T14:40:07.208Z,7.55
2022-10-19T14:42:41.981Z,7.63
2022-10-19T14:45:19.907Z,6.85
2022-10-19T14:47:57.031Z,7.20
2022-10-19T14:50:30.473Z,7.43
2022-10-19T14:53:03.156Z,7.70
2022-10-19T14:55:37.042Z,7.68
2022-10-19T14:58:11.472Z,8.10
2022-10-19T15:00:41.457Z,7.88
2022-10-19T15:03:14.309Z,8.27
2022-10-19T15:05:48.839Z,8.85
2022-10-19T15:08:23.655Z,8.93
2022-10-19T15:10:52.244Z,7.88
2022-10-19T15:13:25.346Z,8.27
2022-10-19T15:15:55.600Z,8.88
2022-10-19T15:18:47.476Z,9.15
2022-10-19T15:21:15.310Z,8.32
2022-10-19T15:23:45.724Z,8.55
2022-10-19T15:26:20.412Z,8.75
2022-10-19T15:28:49.638Z,8.13
2022-10-19T15:31:21.677Z,8.05
2022-10-19T15:33:52.305Z,8.85
2022-10-19T15:36:22.320Z,8.57
2022-10-19T15:39:11.585Z,9.88
2022-10-19T15:41:49.018Z,9.13
2022-10-19T15:44:32.581Z,9.23
2022-10-19T15:47:21.674Z,9.10
2022-10-19T15:49:59.037Z,9.05
2022-10-19T15:52:28.794Z,8.23
2022-10-19T15:54:58.813Z,9.00
2022-10-19T15:57:30.090Z,10.95
2022-10-19T15:59:59.996Z,11.27
2022-10-19T16:02:29.432Z,11.05
2022-10-19T16:04:57.467Z,11.20
2022-10-19T16:07:27.971Z,11.40
2022-10-19T16:09:56.110Z,11.75
2022-10-19T16:12:24.477Z,11.88
2022-10-19T16:14:52.598Z,11.40
2022-10-19T16:17:20.825Z,11.30
2022-10-19T16:19:50.239Z,11.70
2022-10-19T16:22:18.412Z,11.25
2022-10-19T16:24:46.388Z,11.55
2022-10-19T16:27:16.163Z,11.52
2022-10-19T16:29:44.723Z,11.73
2022-10-19T16:32:12.770Z,12.43
2022-10-19T16:34:42.313Z,13.27
2022-10-19T16:39:39.513Z,13.48
2022-10-19T16:42:07.540Z,15.35
2022-10-19T16:44:35.582Z,14.95
2022-10-19T16:47:03.960Z,15.75
2022-10-19T16:49:32.276Z,15.60
2022-10-19T16:52:01.587Z,15.43
2022-10-19T16:54:32.636Z,16.90
2022-10-19T16:57:00.652Z,17.27
2022-10-19T16:59:28.617Z,17.30
2022-10-19T17:01:56.689Z,16.63
2022-10-19T17:04:25.987Z,17.58
2022-10-19T17:06:53.956Z,17.58
2022-10-19T17:09:41.888Z,19.23
2022-10-19T17:12:12.291Z,22.67
2022-10-19T17:14:41.448Z,23.02
2022-10-19T17:17:11.011Z,22.75
2022-10-19T17:22:06.968Z,19.70
2022-10-19T17:24:35.148Z,18.80
2022-10-19T17:27:03.839Z,18.50
2022-10-19T17:29:33.210Z,18.98
2022-10-19T17:32:01.195Z,16.75
2022-10-19T17:34:29.232Z,17.33
2022-10-19T17:36:57.746Z,18.80
2022-10-19T17:39:29.150Z,19.38
2022-10-19T17:42:01.615Z,18.15
2022-10-19T17:44:31.243Z,18.20
2022-10-19T17:47:01.347Z,17.58
2022-10-19T17:49:29.887Z,17.27
2022-10-19T17:51:58.095Z,15.47
2022-10-19T17:54:26.233Z,15.68
2022-10-19T17:56:54.229Z,15.90
2022-10-19T17:59:30.206Z,16.48
2022-10-19T18:02:06.217Z,17.73
2022-10-19T18:07:03.112Z,15.77
2022-10-19T18:09:31.200Z,14.60
2022-10-19T18:12:02.268Z,14.50
2022-10-19T18:14:32.588Z,14.05
2022-10-19T18:17:00.616Z,13.07
2022-10-19T18:19:29.937Z,13.68
2022-10-19T18:21:57.976Z,12.82
2022-10-19T18:24:26.416Z,12.20
2022-10-19T18:26:54.529Z,13.02
2022-10-19T18:29:24.612Z,12.23
2022-10-19T18:31:53.107Z,12.38
2022-10-19T18:34:23.359Z,12.50
2022-10-19T18:36:53.546Z,12.52
2022-10-19T18:39:22.207Z,10.88
2022-10-19T18:41:54.047Z,12.10
2022-10-19T18:44:26.302Z,11.18
2022-10-19T18:46:55.371Z,10.90
2022-10-19T18:49:23.890Z,10.75
2022-10-19T18:51:55.442Z,10.02
2022-10-19T18:54:24.559Z,10.63
2022-10-19T18:56:52.641Z,10.85
2022-10-19T18:59:20.746Z,9.52
2022-10-19T19:01:51.011Z,10.00
2022-10-19T19:04:19.084Z,10.00
2022-10-19T19:06:47.130Z,9.55
2022-10-19T19:09:17.430Z,9.48
2022-10-19T19:11:45.540Z,9.07
2022-10-19T19:14:15.736Z,9.27
2022-10-19T19:16:45.525Z,8.48
2022-10-19T19:19:15.369Z,8.23
2022-10-19T19:21:44.986Z,9.35
2022-10-19T19:24:15.648Z,8.30
2022-10-19T19:26:49.309Z,8.95
2022-10-19T19:29:17.829Z,8.07
2022-10-19T19:31:47.822Z,8.23
2022-10-19T19:34:15.943Z,7.63
2022-10-19T19:36:47.870Z,8.73
2022-10-19T19:39:18.673Z,8.00
2022-10-19T19:41:48.673Z,8.02
2022-10-19T19:44:17.699Z,8.38
2022-10-19T19:46:45.780Z,8.52
2022-10-19T19:49:13.996Z,7.47
2022-10-19T19:51:42.035Z,7.72
2022-10-19T19:54:11.157Z,7.68
2022-10-19T19:56:40.009Z,7.57
2022-10-19T19:59:11.496Z,7.63
2022-10-19T20:01:40.319Z,8.25
2022-10-19T20:04:08.391Z,5.10
2022-10-19T20:06:38.151Z,8.05
2022-10-19T20:09:07.356Z,8.55
2022-10-19T20:11:38.415Z,8.35
2022-10-19T20:14:11.647Z,7.60
2022-10-19T20:16:39.654Z,8.43
2022-10-19T20:19:10.134Z,8.45
2022-10-19T20:21:38.264Z,9.25
2022-10-19T20:24:06.746Z,9.32
2022-10-19T20:26:34.799Z,9.77
2022-10-19T20:29:03.849Z,8.45
2022-10-19T20:31:39.095Z,9.02
2022-10-19T20:34:13.622Z,7.93
2022-10-19T20:36:41.691Z,7.93
2022-10-19T20:39:10.298Z,6.75
2022-10-19T20:41:38.317Z,9.70
2022-10-19T20:44:06.653Z,7.35
2022-10-19T20:46:36.933Z,5.57
2022-10-19T20:49:04.990Z,6.07
2022-10-19T20:51:36.484Z,5.55
2022-10-19T20:54:05.889Z,5.55
2022-10-19T20:56:35.442Z,5.75
2022-10-19T21:01:40.219Z,5.43
2022-10-19T21:04:14.811Z,5.45
2022-10-19T21:06:44.838Z,6.22
2022-10-19T21:09:14.378Z,6.03
2022-10-19T21:11:43.819Z,5.55
2022-10-19T21:14:14.650Z,5.80
2022-10-19T21:16:44.271Z,5.30
2022-10-19T21:19:14.219Z,5.75
2022-10-19T21:21:44.114Z,6.18
2022-10-19T21:24:13.502Z,6.03
2022-10-19T21:26:41.948Z,6.47
2022-10-19T21:29:11.537Z,6.70
2022-10-19T21:34:15.729Z,6.75
2022-10-19T21:36:43.777Z,6.35
2022-10-19T21:39:11.836Z,7.18
2022-10-19T21:41:39.943Z,7.53
2022-10-19T21:44:08.211Z,7.45
2022-10-19T21:46:36.329Z,8.40
2022-10-19T21:49:04.598Z,8.90
2022-10-19T21:51:37.741Z,9.52
2022-10-19T21:54:07.673Z,8.93
2022-10-19T21:56:35.905Z,9.18
2022-10-19T21:59:04.163Z,8.93
2022-10-19T22:01:38.532Z,9.82
2022-10-19T22:04:11.909Z,9.18
2022-10-19T22:06:41.818Z,9.48
2022-10-19T22:09:12.768Z,9.30
2022-10-19T22:11:40.772Z,8.27
2022-10-19T22:14:08.842Z,8.68
2022-10-19T22:16:37.154Z,8.40
2022-10-19T22:19:05.932Z,7.65
2022-10-19T22:21:35.555Z,7.93
2022-10-19T22:26:37.370Z,7.80
2022-10-19T22:29:07.151Z,8.68
2022-10-19T22:31:36.258Z,8.43
2022-10-19T22:34:06.413Z,9.63
2022-10-19T22:36:34.450Z,8.48
2022-10-19T22:39:03.069Z,8.63
2022-10-19T22:41:32.417Z,10.13
2022-10-19T22:44:00.460Z,8.98
2022-10-19T22:46:28.457Z,8.27
2022-10-19T22:48:56.524Z,9.60
2022-10-19T22:51:24.610Z,9.27
2022-10-19T22:53:52.573Z,9.73
2022-10-19T22:56:20.635Z,10.25
2022-10-19T22:58:50.103Z,9.32
2022-10-19T23:03:46.307Z,8.93
2022-10-19T23:06:16.011Z,9.73
2022-10-19T23:08:44.924Z,9.98
2022-10-19T23:11:13.440Z,9.93
2022-10-19T23:13:42.074Z,9.43
2022-10-19T23:16:11.857Z,9.70
2022-10-19T23:18:41.785Z,9.90
2022-10-19T23:21:12.583Z,9.57
2022-10-19T23:23:40.695Z,10.43
2022-10-19T23:26:10.560Z,9.48
2022-10-19T23:28:40.857Z,10.38
2022-10-19T23:31:12.931Z,9.68
2022-10-19T23:33:41.117Z,9.55
2022-10-19T23:36:11.029Z,10.23
2022-10-19T23:38:39.067Z,9.73
2022-10-19T23:41:07.694Z,9.90
2022-10-19T23:46:04.804Z,10.57
2022-10-19T23:48:34.809Z,10.65
2022-10-19T23:51:05.390Z,10.23
2022-10-19T23:53:38.409Z,10.38
2022-10-19T23:56:10.755Z,10.23
2022-10-19T23:58:38.740Z,10.38
